Time;durP1;ratioP1;P1;durP2;ratioP2;P2;SDS_P1;SDS_P2;PMS_P1;PMS_P2;Temp;Humidity;BMP_temperature;BMP_pressure;BME280_temperature;BME280_humidity;BME280_pressure;Samples;Min_cycle;Max_cycle;Signal;HPM_P1;HPM_P2
2022/08/17 00:01:00;;;;;;;7.22;4.50;;;;;;;18.32;100.00;95674.09;5085581;28;20067;-71
2022/08/17 00:03:29;;;;;;;7.57;4.75;;;;;;;18.29;100.00;95675.31;5087266;28;20085;-72
2022/08/17 00:06:10;;;;;;;8.15;4.57;;;;;;;18.27;100.00;95673.91;5084481;28;20089;-73
2022/08/17 00:08:57;;;;;;;6.35;3.97;;;;;;;18.25;100.00;95681.31;5080053;28;20032;-74
2022/08/17 00:11:30;;;;;;;9.60;4.03;;;;;;;18.21;100.00;95677.44;5079787;28;20062;-75
2022/08/17 00:14:04;;;;;;;7.60;4.95;;;;;;;18.17;100.00;95671.75;5085415;28;20039;-74
2022/08/17 00:16:33;;;;;;;8.13;3.95;;;;;;;18.16;100.00;95674.66;5074075;28;20040;-73
2022/08/17 00:19:05;;;;;;;8.80;4.40;;;;;;;18.16;100.00;95672.00;5086460;28;20028;-72
2022/08/17 00:21:34;;;;;;;6.22;4.22;;;;;;;18.24;100.00;95675.19;5086809;28;20438;-74
2022/08/17 00:24:00;;;;;;;8.88;4.80;;;;;;;18.22;100.00;95669.25;5085132;28;21301;-76
2022/08/17 00:26:26;;;;;;;8.55;4.93;;;;;;;18.16;100.00;95664.00;5083410;28;20111;-72
2022/08/17 00:28:52;;;;;;;8.18;4.70;;;;;;;18.23;100.00;95664.75;5070006;28;20040;-75
2022/08/17 00:31:18;;;;;;;9.10;4.60;;;;;;;18.18;100.00;95675.25;5086734;28;20039;-72
2022/08/17 00:33:44;;;;;;;7.80;4.93;;;;;;;18.13;100.00;95668.72;5086721;28;20043;-71
2022/08/17 00:36:12;;;;;;;7.07;4.60;;;;;;;18.16;100.00;95670.13;5085146;28;20103;-71
2022/08/17 00:38:38;;;;;;;7.68;4.20;;;;;;;18.17;100.00;95662.97;5083974;28;20032;-71
2022/08/17 00:41:10;;;;;;;8.30;4.63;;;;;;;18.17;100.00;95660.31;5086136;28;20065;-71
2022/08/17 00:43:40;;;;;;;7.45;4.35;;;;;;;18.06;100.00;95667.97;5086653;28;20729;-72
2022/08/17 00:46:22;;;;;;;6.53;4.25;;;;;;;18.03;100.00;95660.44;5083980;28;20504;-72
2022/08/17 00:48:49;;;;;;;6.95;4.60;;;;;;;18.00;100.00;95660.06;5084259;28;20028;-72
2022/08/17 00:51:24;;;;;;;7.63;4.25;;;;;;;18.05;100.00;95657.56;5082504;28;20052;-74
2022/08/17 00:53:55;;;;;;;7.45;4.20;;;;;;;18.12;100.00;95661.78;5085732;28;20032;-73
2022/08/17 00:56:30;;;;;;;7.10;4.45;;;;;;;18.13;100.00;95660.75;5081142;28;20035;-71
2022/08/17 00:58:57;;;;;;;6.32;4.25;;;;;;;18.00;100.00;95660.06;5080846;28;20090;-72
2022/08/17 01:01:23;;;;;;;6.85;4.45;;;;;;;17.90;100.00;95657.91;5079439;28;20409;-72
2022/08/17 01:03:53;;;;;;;6.53;4.47;;;;;;;17.94;100.00;95656.47;5082135;28;20523;-71
2022/08/17 01:06:21;;;;;;;8.07;4.93;;;;;;;17.90;100.00;95647.25;5084394;28;20024;-72
2022/08/17 01:08:50;;;;;;;7.85;4.07;;;;;;;17.99;100.00;95653.13;5085327;28;20500;-71
2022/08/17 01:11:17;;;;;;;6.80;4.85;;;;;;;17.95;100.00;95655.41;5068274;28;20016;-72
2022/08/17 01:13:44;;;;;;;7.40;4.78;;;;;;;17.95;100.00;95652.75;5082584;28;20033;-72
2022/08/17 01:16:20;;;;;;;7.22;4.28;;;;;;;17.94;100.00;95650.28;5081181;28;20691;-72
2022/08/17 01:18:49;;;;;;;7.07;4.40;;;;;;;17.88;100.00;95644.84;5081802;28;20152;-72
2022/08/17 01:21:38;;;;;;;6.38;4.38;;;;;;;17.91;100.00;95651.56;5085903;28;20024;-72
2022/08/17 01:24:03;;;;;;;8.00;4.47;;;;;;;17.87;100.00;95655.69;5084096;28;20040;-72
2022/08/17 01:26:31;;;;;;;7.95;4.53;;;;;;;17.90;100.00;95649.91;5085915;28;20443;-71
2022/08/17 01:28:58;;;;;;;6.72;4.40;;;;;;;17.89;100.00;95648.31;5086397;28;20028;-71
2022/08/17 01:31:29;;;;;;;12.82;4.65;;;;;;;17.96;100.00;95648.25;5075415;28;20447;-74
2022/08/17 01:33:58;;;;;;;7.20;4.72;;;;;;;17.93;100.00;95651.34;5084303;28;20063;-72
2022/08/17 01:36:24;;;;;;;7.90;4.05;;;;;;;17.90;100.00;95655.25;5085479;28;20032;-76
2022/08/17 01:38:50;;;;;;;7.60;3.97;;;;;;;17.89;100.00;95649.13;5076272;28;20043;-72
2022/08/17 01:41:16;;;;;;;5.43;4.05;;;;;;;17.93;100.00;95651.34;5083774;28;20469;-72
2022/08/17 01:44:08;;;;;;;9.57;4.82;;;;;;;17.97;100.00;95644.53;5084066;28;20020;-72
2022/08/17 01:46:35;;;;;;;5.80;3.78;;;;;;;17.96;100.00;95649.06;5077230;28;20052;-72
2022/08/17 01:49:07;;;;;;;6.93;4.22;;;;;;;17.92;100.00;95649.72;5080592;28;20024;-74
2022/08/17 01:51:32;;;;;;;8.02;4.40;;;;;;;17.96;100.00;95643.72;5083168;28;20040;-72
2022/08/17 01:54:03;;;;;;;8.75;4.00;;;;;;;17.97;100.00;95640.03;5079273;28;20423;-71
2022/08/17 01:56:33;;;;;;;8.65;3.97;;;;;;;17.94;100.00;95640.50;5078149;28;20034;-73
2022/08/17 01:58:58;;;;;;;5.82;4.15;;;;;;;17.94;100.00;95635.19;5082501;28;20039;-72
2022/08/17 02:01:28;;;;;;;5.60;3.85;;;;;;;17.94;100.00;95640.50;5086228;28;20016;-71
2022/08/17 02:03:54;;;;;;;7.60;4.40;;;;;;;17.95;100.00;95635.97;5084304;28;20024;-72
2022/08/17 02:06:21;;;;;;;7.70;4.35;;;;;;;17.98;100.00;95636.34;5083357;28;20506;-71
2022/08/17 02:08:47;;;;;;;6.00;3.95;;;;;;;17.97;100.00;95637.38;5087281;28;20469;-72
2022/08/17 02:11:16;;;;;;;9.32;4.32;;;;;;;18.00;100.00;95634.28;5086450;28;20550;-72
2022/08/17 02:13:48;;;;;;;6.97;3.90;;;;;;;17.96;100.00;95625.09;5086547;28;20477;-74
2022/08/17 02:16:14;;;;;;;8.18;3.80;;;;;;;17.98;100.00;95630.22;5084894;28;20040;-72
2022/08/17 02:18:40;;;;;;;8.13;4.03;;;;;;;17.96;100.00;95630.44;5074691;28;20039;-72
2022/08/17 02:21:07;;;;;;;6.93;4.05;;;;;;;17.99;100.00;95632.66;5087257;28;20027;-72
2022/08/17 02:23:37;;;;;;;5.68;4.05;;;;;;;17.96;100.00;95637.59;5086928;28;20115;-72
2022/08/17 02:26:04;;;;;;;6.68;3.85;;;;;;;17.80;100.00;95642.44;5073558;28;20035;-71
2022/08/17 02:28:29;;;;;;;8.23;4.57;;;;;;;17.77;100.00;95634.94;5080608;28;20169;-73
2022/08/17 02:30:56;;;;;;;8.90;4.90;;;;;;;17.79;100.00;95629.38;5081865;28;20112;-71
2022/08/17 02:33:21;;;;;;;5.80;4.57;;;;;;;17.75;100.00;95636.13;5086849;28;20031;-71
2022/08/17 02:35:47;;;;;;;8.20;4.72;;;;;;;17.76;100.00;95635.94;5086305;28;20031;-71
2022/08/17 02:38:13;;;;;;;6.53;4.90;;;;;;;17.79;100.00;95632.03;5090123;28;20055;-71
2022/08/17 02:40:39;;;;;;;8.65;4.55;;;;;;;17.81;100.00;95630.78;5089723;28;20059;-72
2022/08/17 02:43:07;;;;;;;7.93;4.75;;;;;;;17.85;100.00;95633.81;5091428;28;20124;-73
2022/08/17 02:45:33;;;;;;;8.18;4.82;;;;;;;17.86;100.00;95635.44;5086030;28;20028;-71
2022/08/17 02:47:59;;;;;;;6.18;4.03;;;;;;;17.82;100.00;95635.06;5091191;28;20099;-72
2022/08/17 02:50:25;;;;;;;5.78;3.95;;;;;;;17.80;100.00;95623.81;5092936;28;20580;-71
2022/08/17 02:52:51;;;;;;;7.13;4.03;;;;;;;17.73;100.00;95619.56;5088597;28;20024;-71
2022/08/17 02:55:30;;;;;;;7.15;4.18;;;;;;;17.76;100.00;95617.31;5091065;28;20703;-71
2022/08/17 02:57:56;;;;;;;6.13;3.90;;;;;;;17.75;100.00;95614.88;5080101;28;20401;-71
2022/08/17 03:00:27;;;;;;;6.03;4.03;;;;;;;17.71;100.00;95613.69;5067397;28;20073;-73
2022/08/17 03:02:55;;;;;;;7.78;4.15;;;;;;;17.76;100.00;95627.13;5066046;28;20035;-72
2022/08/17 03:05:24;;;;;;;6.28;4.10;;;;;;;17.72;100.00;95620.63;5067671;28;20012;-73
2022/08/17 03:07:50;;;;;;;7.15;4.63;;;;;;;17.74;100.00;95634.50;5067223;28;20028;-72
2022/08/17 03:10:16;;;;;;;7.93;4.32;;;;;;;17.70;100.00;95628.00;5066215;28;20028;-72
2022/08/17 03:12:44;;;;;;;6.65;4.80;;;;;;;17.65;100.00;95632.13;5048127;28;20024;-72
2022/08/17 03:15:25;;;;;;;5.85;4.38;;;;;;;17.66;100.00;95636.41;5063145;28;20044;-72
2022/08/17 03:17:54;;;;;;;6.32;4.25;;;;;;;17.65;100.00;95637.44;5062345;28;20105;-71
2022/08/17 03:20:20;;;;;;;6.95;3.83;;;;;;;17.62;100.00;95635.22;5067315;28;20035;-72
2022/08/17 03:22:49;;;;;;;6.88;4.78;;;;;;;17.63;100.00;95638.69;5064826;28;20646;-71
2022/08/17 03:25:31;;;;;;;6.65;4.20;;;;;;;17.65;100.00;95632.13;5065412;28;20035;-72
2022/08/17 03:27:57;;;;;;;5.72;4.10;;;;;;;17.68;100.00;95641.50;5066768;28;20024;-72
2022/08/17 03:30:25;;;;;;;6.85;4.15;;;;;;;17.71;100.00;95640.28;5089618;28;20031;-72
2022/08/17 03:32:53;;;;;;;7.57;4.55;;;;;;;17.72;100.00;95644.56;5083144;28;20032;-71
2022/08/17 03:35:22;;;;;;;7.80;3.92;;;;;;;17.67;100.00;95650.50;5082294;28;20111;-72
2022/08/17 03:37:48;;;;;;;5.57;4.20;;;;;;;17.70;100.00;95646.59;5083377;28;20028;-71
2022/08/17 03:40:14;;;;;;;8.15;4.22;;;;;;;17.63;100.00;95644.81;5088285;28;20445;-72
2022/08/17 03:42:40;;;;;;;6.05;3.63;;;;;;;17.67;100.00;95654.00;5086504;28;20032;-71
2022/08/17 03:45:10;;;;;;;6.07;4.00;;;;;;;17.60;100.00;95645.25;5084942;28;20024;-72
2022/08/17 03:58:42;;;;;;;8.38;5.00;;;;;;;17.51;100.00;95651.88;5085524;28;20032;-73
2022/08/17 04:01:09;;;;;;;6.68;5.20;;;;;;;17.50;100.00;95642.25;5088231;28;20449;-71
2022/08/17 04:03:35;;;;;;;7.00;4.88;;;;;;;17.45;100.00;95644.78;5083741;28;20032;-71
2022/08/17 04:06:01;;;;;;;8.38;4.22;;;;;;;17.46;100.00;95643.72;5086789;28;20036;-71
2022/08/17 04:08:27;;;;;;;6.47;4.78;;;;;;;17.55;100.00;95647.75;5082881;28;20073;-72
2022/08/17 04:10:54;;;;;;;10.02;4.57;;;;;;;17.57;100.00;95643.03;5087765;28;20435;-71
2022/08/17 04:13:20;;;;;;;5.88;4.20;;;;;;;17.56;100.00;95644.06;5080113;28;20052;-72
2022/08/17 04:15:48;;;;;;;9.23;5.70;;;;;;;17.56;100.00;95648.56;5085995;28;20036;-71
2022/08/17 04:18:17;;;;;;;8.00;5.22;;;;;;;17.63;100.00;95646.66;5084473;28;20056;-71
2022/08/17 04:20:42;;;;;;;7.25;4.88;;;;;;;17.61;100.00;95651.41;5078495;28;20048;-72
2022/08/17 04:23:13;;;;;;;9.50;5.43;;;;;;;17.61;100.00;95654.88;5087079;28;20032;-71
2022/08/17 04:25:43;;;;;;;10.35;8.27;;;;;;;17.68;100.00;95657.47;5086214;28;20599;-71
2022/08/17 04:28:09;;;;;;;13.18;10.07;;;;;;;17.64;100.00;95654.44;5080740;28;20017;-71
2022/08/17 04:30:36;;;;;;;23.45;19.90;;;;;;;17.67;100.00;95640.72;5084659;28;21470;-71
2022/08/17 04:33:20;;;;;;;10.63;5.35;;;;;;;17.54;100.00;95651.44;5082354;28;20032;-72
2022/08/17 04:35:58;;;;;;;9.13;5.30;;;;;;;17.58;100.00;95657.16;5080083;28;20059;-71
2022/08/17 04:38:27;;;;;;;7.60;4.93;;;;;;;17.53;100.00;95657.78;5086298;28;20059;-72
2022/08/17 04:43:41;;;;;;;8.10;5.10;;;;;;;17.65;100.00;95663.22;5084078;28;20028;-72
2022/08/17 04:46:11;;;;;;;8.35;4.88;;;;;;;17.69;100.00;95664.41;5084778;28;20032;-71
2022/08/17 04:48:46;;;;;;;8.65;4.80;;;;;;;17.72;100.00;95663.16;5084895;28;20028;-72
2022/08/17 04:51:16;;;;;;;10.23;5.60;;;;;;;17.78;100.00;95659.66;5084899;28;20032;-71
2022/08/17 04:53:45;;;;;;;6.22;4.50;;;;;;;17.78;100.00;95660.47;5085713;28;20027;-71
2022/08/17 04:56:14;;;;;;;8.13;4.97;;;;;;;17.78;100.00;95662.34;5085177;28;20032;-72
2022/08/17 04:58:41;;;;;;;7.57;4.22;;;;;;;17.80;100.00;95676.22;5082443;28;20708;-74
2022/08/17 05:01:07;;;;;;;6.15;4.38;;;;;;;17.72;100.00;95666.63;5080687;28;20025;-72
2022/08/17 05:03:33;;;;;;;8.68;4.97;;;;;;;17.77;100.00;95673.97;5083172;28;20082;-71
2022/08/17 05:05:59;;;;;;;6.47;4.75;;;;;;;17.72;100.00;95673.81;5083259;28;20077;-71
2022/08/17 05:08:25;;;;;;;8.35;5.28;;;;;;;17.71;100.00;95677.50;5081804;28;20049;-71
2022/08/17 05:10:51;;;;;;;7.53;4.53;;;;;;;17.60;100.00;95671.81;5067974;28;21401;-73
2022/08/17 05:13:21;;;;;;;7.38;5.00;;;;;;;17.56;100.00;95667.19;5085573;28;20123;-74
2022/08/17 05:15:51;;;;;;;8.50;5.70;;;;;;;17.61;100.00;95662.84;5081450;28;20065;-72
2022/08/17 05:18:17;;;;;;;8.20;5.20;;;;;;;17.61;100.00;95665.50;5087030;28;20594;-73
2022/08/17 05:20:43;;;;;;;8.75;5.25;;;;;;;17.62;100.00;95667.13;5083321;28;20066;-71
2022/08/17 05:23:13;;;;;;;8.13;5.35;;;;;;;17.62;100.00;95661.81;5084340;28;21028;-72
2022/08/17 05:25:42;;;;;;;8.25;6.00;;;;;;;18.14;100.00;95664.22;5085171;28;20104;-72
2022/08/17 05:28:10;;;;;;;7.60;5.57;;;;;;;18.12;100.00;95661.78;5083619;28;20028;-72
2022/08/17 05:30:39;;;;;;;8.65;6.03;;;;;;;18.33;100.00;95670.38;5081767;28;20040;-73
2022/08/17 05:33:09;;;;;;;7.40;5.65;;;;;;;18.41;100.00;95678.09;5100966;28;20046;-73
2022/08/17 05:35:41;;;;;;;11.10;6.40;;;;;;;18.64;100.00;95673.91;5082860;28;20134;-71
2022/08/17 05:38:07;;;;;;;9.68;6.53;;;;;;;19.05;100.00;95690.03;5084382;28;20062;-71
2022/08/17 05:40:33;;;;;;;10.43;6.18;;;;;;;19.37;100.00;95681.78;5081443;28;20049;-72
2022/08/17 05:43:39;;;;;;;8.70;5.80;;;;;;;19.81;96.84;95682.34;5080322;28;20133;-72
2022/08/17 05:46:13;;;;;;;11.68;6.53;;;;;;;19.60;96.09;95683.69;5086661;28;20048;-72
2022/08/17 05:48:48;;;;;;;8.02;5.65;;;;;;;20.23;93.70;95675.06;5084860;28;20036;-71
2022/08/17 05:51:30;;;;;;;9.00;5.10;;;;;;;20.27;92.16;95675.41;5069299;28;20081;-71
2022/08/17 05:54:08;;;;;;;9.15;5.28;;;;;;;20.67;89.64;95675.47;5083030;28;20040;-74
2022/08/17 05:57:11;;;;;;;7.53;5.60;;;;;;;21.20;87.07;95684.25;5086799;28;20038;-72
2022/08/17 06:00:10;;;;;;;7.72;4.57;;;;;;;21.61;83.39;95696.50;5082026;28;20052;-72
2022/08/17 06:03:06;;;;;;;13.85;5.22;;;;;;;21.94;82.00;95702.13;5074965;28;20198;-71
2022/08/17 06:06:06;;;;;;;8.10;5.03;;;;;;;22.03;82.90;95700.66;5073688;28;20036;-72
2022/08/17 06:08:47;;;;;;;10.07;5.20;;;;;;;21.24;86.54;95711.34;5079933;28;20370;-72
2022/08/17 06:11:35;;;;;;;9.90;4.65;;;;;;;21.13;87.45;95710.34;5068309;28;20039;-72
2022/08/17 06:14:43;;;;;;;8.95;5.38;;;;;;;21.28;88.36;95699.91;5084458;28;20065;-72
2022/08/17 06:17:17;;;;;;;6.55;5.00;;;;;;;21.41;84.20;95707.66;5057606;28;20082;-72
2022/08/17 06:19:51;;;;;;;9.32;4.90;;;;;;;22.34;78.97;95700.09;5078806;28;20043;-71
2022/08/17 06:22:21;;;;;;;9.98;5.30;;;;;;;21.61;82.19;95712.56;5083588;28;20488;-72
2022/08/17 06:25:11;;;;;;;6.05;4.25;;;;;;;21.60;81.72;95710.16;5075303;28;20460;-72
2022/08/17 06:27:58;;;;;;;9.93;4.68;;;;;;;22.29;77.23;95713.41;5079394;28;20036;-72
2022/08/17 06:30:27;;;;;;;7.50;5.25;;;;;;;21.77;78.48;95707.50;5085423;28;20539;-73
2022/08/17 06:33:01;;;;;;;8.20;5.10;;;;;;;21.65;81.54;95705.66;5078488;28;20070;-73
2022/08/17 06:35:31;;;;;;;5.55;4.10;;;;;;;22.36;77.41;95719.41;5086265;28;20035;-73
2022/08/17 06:38:07;;;;;;;7.28;4.70;;;;;;;22.96;75.23;95727.72;5086840;28;20036;-72
2022/08/17 06:40:51;;;;;;;7.80;4.40;;;;;;;23.21;71.64;95728.03;5086647;28;20027;-73
2022/08/17 06:43:25;;;;;;;6.53;4.38;;;;;;;22.88;73.71;95733.50;5087101;28;20032;-74
2022/08/17 06:45:58;;;;;;;6.40;4.13;;;;;;;23.44;70.47;95743.06;5086622;28;20096;-72
2022/08/17 06:48:32;;;;;;;5.72;4.20;;;;;;;24.04;65.08;95746.56;5080654;28;20032;-72
2022/08/17 06:51:28;;;;;;;8.63;3.70;;;;;;;24.16;64.96;95752.59;5085793;28;20038;-72
2022/08/17 06:54:14;;;;;;;6.95;4.60;;;;;;;23.79;66.65;95754.41;5082442;28;20586;-75
2022/08/17 06:57:05;;;;;;;7.90;4.60;;;;;;;24.07;67.25;95759.50;5084543;28;20849;-72
2022/08/17 06:59:41;;;;;;;5.75;3.83;;;;;;;25.13;61.61;95761.31;5079259;28;20043;-72
2022/08/17 07:02:09;;;;;;;6.32;3.90;;;;;;;25.79;57.37;95754.50;5088038;28;20046;-74
2022/08/17 07:04:35;;;;;;;5.65;3.30;;;;;;;26.03;55.10;95752.13;5078811;28;20038;-73
2022/08/17 07:08:00;;;;;;;5.25;4.00;;;;;;;26.25;53.90;95743.75;5081055;28;20044;-75
2022/08/17 07:09:55;;;;;;;5.80;3.80;;;;;;;26.49;54.48;95749.44;5085298;28;20038;-73
2022/08/17 07:12:26;;;;;;;7.07;3.90;;;;;;;26.77;53.27;95756.13;5082556;28;20039;-73
2022/08/17 07:15:03;;;;;;;7.78;3.92;;;;;;;27.68;50.72;95751.47;5085165;28;20044;-73
2022/08/17 07:17:28;;;;;;;11.43;8.23;;;;;;;27.95;49.78;95754.53;5086159;28;20097;-73
2022/08/17 07:20:05;;;;;;;8.52;4.22;;;;;;;28.10;47.45;95756.34;5084753;28;20123;-72
2022/08/17 07:22:54;;;;;;;5.63;3.75;;;;;;;28.69;45.47;95749.06;5086595;28;20061;-73
2022/08/17 07:25:20;;;;;;;6.32;3.70;;;;;;;27.81;46.00;95748.16;5081281;28;20109;-72
2022/08/17 07:27:52;;;;;;;5.38;3.83;;;;;;;28.08;48.44;95749.59;5089856;28;20099;-74
2022/08/17 07:30:28;;;;;;;10.55;7.63;;;;;;;28.63;45.00;95742.91;5088753;28;20065;-73
2022/08/17 07:32:58;;;;;;;6.57;3.85;;;;;;;28.58;45.92;95729.44;5085614;28;20043;-72
2022/08/17 07:35:27;;;;;;;6.28;3.80;;;;;;;29.31;44.77;95727.53;5089748;28;20024;-73
2022/08/17 07:38:27;;;;;;;8.35;4.15;;;;;;;29.48;43.84;95725.16;5089358;28;20048;-72
2022/08/17 07:41:01;;;;;;;8.35;4.18;;;;;;;29.48;44.24;95718.94;5088946;28;20048;-75
2022/08/17 07:43:36;;;;;;;8.13;3.80;;;;;;;28.82;44.61;95734.88;5090175;28;20058;-73
2022/08/17 07:49:14;;;;;;;8.32;3.80;;;;;;;29.55;42.06;95719.38;5089339;28;20032;-73
2022/08/17 07:51:55;;;;;;;6.55;3.80;;;;;;;30.20;41.12;95724.94;5089439;28;20085;-73
2022/08/17 07:54:26;;;;;;;6.50;4.07;;;;;;;30.32;40.86;95740.75;5080862;28;20143;-74
2022/08/17 07:57:22;;;;;;;7.07;3.38;;;;;;;29.77;41.13;95744.00;5084404;28;20950;-75
2022/08/17 08:00:00;;;;;;;6.28;4.15;;;;;;;30.04;38.12;95745.22;5080585;28;20077;-73
2022/08/17 08:02:29;;;;;;;5.93;3.88;;;;;;;29.59;40.95;95750.22;5080975;28;20078;-73
2022/08/17 08:05:02;;;;;;;6.57;3.58;;;;;;;30.34;39.25;95746.66;5088633;28;20097;-72
2022/08/17 08:07:34;;;;;;;7.10;3.45;;;;;;;30.10;39.18;95751.38;5089366;28;20091;-74
2022/08/17 08:10:26;;;;;;;;;;;;;;;30.34;38.59;95740.44;5083886;28;20034;-73
2022/08/17 08:13:05;;;;;;;7.43;3.63;;;;;;;29.53;39.13;95733.22;5083652;28;20419;-75
2022/08/17 08:15:44;;;;;;;8.45;3.47;;;;;;;30.68;37.86;95727.34;5088887;28;20028;-73
2022/08/17 08:18:31;;;;;;;5.28;3.42;;;;;;;30.47;38.74;95726.13;5085015;28;20036;-74
2022/08/17 08:21:07;;;;;;;5.13;3.47;;;;;;;29.89;39.38;95737.34;5083596;28;20443;-73
2022/08/17 08:23:47;;;;;;;4.93;3.47;;;;;;;30.98;37.63;95738.75;5087923;28;20085;-75
2022/08/17 08:26:36;;;;;;;5.30;3.28;;;;;;;30.99;37.32;95735.75;5086618;28;20047;-73
2022/08/17 08:29:21;;;;;;;5.40;3.15;;;;;;;31.15;36.36;95727.28;5087900;28;20036;-72
2022/08/17 08:32:35;;;;;;;4.75;3.17;;;;;;;31.29;36.16;95728.09;5088878;28;20118;-72
2022/08/17 08:35:21;;;;;;;6.75;3.53;;;;;;;31.76;35.21;95730.63;5056521;28;20041;-73
2022/08/17 08:37:59;;;;;;;5.35;3.10;;;;;;;32.30;33.57;95742.47;5086701;28;20604;-73
2022/08/17 08:41:22;;;;;;;6.97;3.08;;;;;;;31.49;35.09;95737.78;5082729;28;20028;-72
2022/08/17 08:44:06;;;;;;;6.90;3.47;;;;;;;32.25;34.46;95737.13;5081777;28;20055;-73
2022/08/17 08:46:59;;;;;;;6.18;3.97;;;;;;;31.97;33.94;95737.25;5090311;28;20035;-73
2022/08/17 08:49:40;;;;;;;5.88;3.03;;;;;;;32.55;33.13;95735.59;5087999;28;20067;-73
2022/08/17 08:52:40;;;;;;;5.85;3.30;;;;;;;33.01;33.30;95735.19;5085791;28;20539;-74
2022/08/17 08:55:37;;;;;;;7.60;3.40;;;;;;;32.62;33.21;95736.75;5080076;28;20397;-73
2022/08/17 08:58:18;;;;;;;6.00;3.40;;;;;;;32.80;32.88;95734.13;5086340;28;20165;-75
2022/08/17 09:00:50;;;;;;;5.53;3.30;;;;;;;32.55;33.47;95738.31;5081547;28;20028;-73
2022/08/17 09:03:16;;;;;;;7.50;6.47;;;;;;;33.15;31.44;95726.91;5089873;28;20036;-72
2022/08/17 09:05:52;;;;;;;6.90;3.78;;;;;;;33.75;30.58;95730.91;5088692;28;20482;-73
2022/08/17 09:09:03;;;;;;;6.82;3.38;;;;;;;34.22;29.81;95728.34;5087166;28;20378;-73
2022/08/17 09:11:36;;;;;;;7.28;3.20;;;;;;;33.83;30.34;95727.34;5073226;28;20050;-73
2022/08/17 09:14:30;;;;;;;6.80;2.80;;;;;;;32.94;30.53;95729.38;5088307;28;20036;-73
2022/08/17 09:17:04;;;;;;;7.63;4.32;;;;;;;33.90;29.70;95716.75;5087812;28;20028;-72
2022/08/17 09:19:37;;;;;;;6.13;4.78;;;;;;;34.48;28.86;95715.44;5088601;28;20028;-73
2022/08/17 09:22:24;;;;;;;5.00;3.20;;;;;;;35.09;27.72;95718.00;5088391;28;20031;-73
2022/08/17 09:25:02;;;;;;;5.80;3.40;;;;;;;35.15;27.31;95724.91;5088097;28;20032;-72
2022/08/17 09:27:48;;;;;;;3.88;2.47;;;;;;;35.72;24.96;95715.41;5080408;28;20626;-73
2022/08/17 09:30:14;;;;;;;4.32;2.17;;;;;;;35.35;24.76;95723.34;5086563;28;20575;-73
2022/08/17 09:32:42;;;;;;;3.80;2.60;;;;;;;35.17;26.05;95716.34;5086872;28;20024;-72
2022/08/17 09:35:15;;;;;;;4.50;2.60;;;;;;;35.22;25.83;95712.66;5085218;28;20028;-73
2022/08/17 09:38:07;;;;;;;4.30;2.45;;;;;;;34.58;25.87;95717.06;5083355;28;20036;-72
2022/08/17 09:40:44;;;;;;;6.68;2.92;;;;;;;34.43;27.02;95723.81;5080588;28;20127;-74
2022/08/17 09:43:45;;;;;;;3.85;2.30;;;;;;;34.71;26.08;95731.66;5086125;28;20023;-73
2022/08/17 09:46:42;;;;;;;5.07;2.83;;;;;;;33.29;28.21;95737.69;5086301;28;20028;-73
2022/08/17 09:49:17;;;;;;;4.93;2.45;;;;;;;33.31;27.92;95744.44;5084546;28;20044;-73
2022/08/17 09:51:57;;;;;;;4.32;2.70;;;;;;;34.43;27.58;95726.53;5082744;28;20512;-73
2022/08/17 09:54:36;;;;;;;3.67;2.53;;;;;;;34.60;27.02;95731.19;5084033;28;20063;-72
2022/08/17 09:57:23;;;;;;;4.53;2.40;;;;;;;34.37;26.94;95733.28;5085030;28;20032;-73
2022/08/17 10:00:12;;;;;;;4.05;2.50;;;;;;;34.35;27.29;95740.22;5082103;28;20040;-73
2022/08/17 10:02:49;;;;;;;4.80;2.42;;;;;;;35.11;26.49;95742.28;5083927;28;20913;-73
2022/08/17 10:05:45;;;;;;;3.55;2.13;;;;;;;33.37;28.01;95750.53;5086296;28;20032;-74
2022/08/17 10:08:22;;;;;;;3.28;2.50;;;;;;;32.82;29.42;95762.63;5087335;28;20024;-73
2022/08/17 10:10:47;;;;;;;4.30;3.03;;;;;;;31.88;30.45;95752.69;5083209;28;20028;-73
2022/08/17 10:13:25;;;;;;;6.03;2.83;;;;;;;32.56;29.65;95759.78;5086899;28;20054;-73
2022/08/17 10:16:30;;;;;;;4.57;2.83;;;;;;;32.63;29.58;95757.44;5086454;28;20046;-73
2022/08/17 10:19:03;;;;;;;10.25;7.50;;;;;;;32.79;29.55;95757.00;5083884;28;20034;-73
2022/08/17 10:27:20;;;;;;;4.07;2.40;;;;;;;32.21;30.43;95752.47;5086156;28;20040;-73
2022/08/17 10:30:03;;;;;;;5.18;2.45;;;;;;;31.52;31.88;95753.44;5086564;28;20429;-72
2022/08/17 10:32:39;;;;;;;6.43;2.88;;;;;;;31.04;32.71;95756.56;5086823;28;20032;-72
2022/08/17 10:35:27;;;;;;;5.30;2.60;;;;;;;31.16;32.28;95756.88;5067139;28;20098;-72
2022/08/17 10:38:15;;;;;;;5.57;2.70;;;;;;;32.10;31.07;95760.09;5086783;28;20067;-72
2022/08/17 10:40:50;;;;;;;4.85;2.90;;;;;;;31.37;31.06;95761.94;5087985;28;20024;-72
2022/08/17 10:43:37;;;;;;;6.57;3.42;;;;;;;31.41;32.12;95760.22;5086824;28;20438;-72
2022/08/17 10:46:12;;;;;;;5.82;2.95;;;;;;;31.99;30.88;95756.78;5084873;28;20048;-72
2022/08/17 10:48:39;;;;;;;8.55;5.30;;;;;;;31.57;30.91;95764.22;5086920;28;20028;-72
2022/08/17 10:51:07;;;;;;;7.18;3.90;;;;;;;31.88;31.22;95763.56;5087048;28;20034;-73
2022/08/17 10:53:39;;;;;;;6.60;3.20;;;;;;;32.45;30.03;95772.03;5085400;28;20571;-72
2022/08/17 10:56:11;;;;;;;6.70;2.78;;;;;;;33.43;28.87;95765.59;5086860;28;20039;-75
2022/08/17 10:58:52;;;;;;;7.47;3.08;;;;;;;32.73;29.21;95780.03;5087385;28;20068;-73
2022/08/17 11:01:32;;;;;;;7.13;5.77;;;;;;;31.91;30.98;95771.91;5091080;28;20036;-74
2022/08/17 11:04:17;;;;;;;4.88;3.10;;;;;;;31.99;30.80;95778.53;5090157;28;20155;-74
2022/08/17 11:06:52;;;;;;;5.63;2.80;;;;;;;32.49;30.25;95789.34;5086211;28;20047;-74
2022/08/17 11:09:42;;;;;;;5.72;2.92;;;;;;;32.51;29.34;95778.97;5072865;28;20496;-74
2022/08/17 11:12:14;;;;;;;3.50;2.53;;;;;;;32.59;29.60;95778.19;5088626;28;20058;-74
2022/08/17 11:15:08;;;;;;;6.40;2.85;;;;;;;32.57;30.23;95787.81;5089281;28;20043;-74
2022/08/17 11:17:43;;;;;;;6.00;3.20;;;;;;;30.99;33.22;95783.84;5087474;28;20034;-73
2022/08/17 11:20:40;;;;;;;4.93;3.13;;;;;;;30.73;35.08;95780.75;5090034;28;20055;-73
2022/08/17 11:23:28;;;;;;;5.18;3.05;;;;;;;30.11;36.22;95780.91;5066878;28;20042;-72
2022/08/17 11:25:57;;;;;;;5.03;3.65;;;;;;;30.98;34.87;95776.78;5078718;28;20036;-73
2022/08/17 11:28:27;;;;;;;5.32;3.83;;;;;;;30.83;35.74;95777.88;5089380;28;20035;-72
2022/08/17 11:31:00;;;;;;;6.53;5.45;;;;;;;30.27;36.00;95785.03;5087887;28;20154;-72
2022/08/17 11:33:29;;;;;;;11.70;7.85;;;;;;;30.34;36.34;95786.56;5087774;28;20026;-75
2022/08/17 11:36:20;;;;;;;4.32;2.80;;;;;;;29.73;36.65;95788.25;5086963;28;20034;-72
2022/08/17 11:39:28;;;;;;;5.07;3.15;;;;;;;29.82;36.89;95779.19;5084911;28;20043;-74
2022/08/17 11:42:24;;;;;;;5.32;3.60;;;;;;;29.42;38.68;95788.63;5075443;28;20116;-72
2022/08/17 11:45:01;;;;;;;5.97;3.20;;;;;;;29.25;38.04;95794.53;5090839;28;20409;-73
2022/08/17 11:53:36;;;;;;;4.57;2.67;;;;;;;32.30;32.03;95784.06;5084187;28;20031;-74
2022/08/17 11:56:25;;;;;;;3.10;2.40;;;;;;;33.81;30.01;95792.34;5090368;28;20032;-74
2022/08/17 11:58:51;;;;;;;5.13;3.00;;;;;;;32.59;31.09;95799.97;5089089;28;20077;-75
2022/08/17 12:01:23;;;;;;;5.55;3.20;;;;;;;32.13;32.33;95801.06;5092610;28;20079;-74
2022/08/17 12:04:23;;;;;;;6.10;3.03;;;;;;;31.47;34.16;95802.47;5090442;28;20508;-74
2022/08/17 12:06:59;;;;;;;5.93;2.58;;;;;;;30.84;35.45;95822.91;5081140;28;20071;-75
2022/08/17 12:09:30;;;;;;;4.47;3.00;;;;;;;30.28;37.05;95826.53;5082108;28;20020;-74
2022/08/17 12:12:04;;;;;;;4.32;3.00;;;;;;;30.85;35.28;95835.41;5086957;28;20107;-74
2022/08/17 12:14:33;;;;;;;5.70;3.30;;;;;;;30.05;36.56;95830.91;5088578;28;20401;-76
2022/08/17 12:17:08;;;;;;;4.85;2.95;;;;;;;29.70;37.94;95829.50;5089519;28;20486;-74
2022/08/17 12:19:36;;;;;;;6.32;3.08;;;;;;;30.61;37.50;95834.69;5090823;28;20032;-74
2022/08/17 12:22:21;;;;;;;5.35;2.90;;;;;;;29.80;38.73;95838.28;5090554;28;20074;-74
2022/08/17 12:24:55;;;;;;;5.40;3.20;;;;;;;30.16;39.02;95853.28;5091305;28;20032;-74
2022/08/17 12:27:34;;;;;;;6.53;3.30;;;;;;;30.17;38.24;95844.81;5088736;28;20483;-74
2022/08/17 12:30:12;;;;;;;4.72;2.83;;;;;;;29.13;40.06;95856.38;5082010;28;20039;-74
2022/08/17 12:32:39;;;;;;;7.40;3.33;;;;;;;29.57;39.23;95852.66;5085832;28;20181;-74
2022/08/17 12:35:31;;;;;;;4.35;3.15;;;;;;;28.79;40.65;95875.34;5087504;28;20028;-75